Manderson, South Dakota
Current Conditions -  °F | °C
As of 10:52 AM on Tuesday 21 Oct 2014 (Local Time) from KIEN Reporting Station
Clear Clear  
Wind Chill: 67°   Ceiling: Unl
Heat Index: 67°   Visibility: 10mi
Dew Point: 47°   Wind: 12mph
Humidity: 49%   Direction: 190°S
Pressure: 29.89"   Gusts: NA
Location:  43.24°N, 102.47°W
Report Text: KIEN 211652Z AUTO 19010KT 10SM CLR 19/08 A2989 RMK AO2 SLP099 T01940083 PWINO $
Loading
Personal Weather Stations






























Interactive Weather Map
Tropical Storm Tracking
New forecast layout! Learn more

10-Day Weather Forecast

Advertisements
Track Severe Weather on mobile